• Join FlightAware (Why Join?)
  • Login
  • US Flag 
07:08AM EDT


 

Airport Tracker/Info


-or-


 

Live Flight TrackerFlight Track Log ✈ EJA727 ✈ 24-Jun-2013 ✈ KBCT - KCHS

Flight Track Log - Related Links

Times and Time Zones

All times are in EDT time to prevent confusion due to time zone crossing. See the EJA727 flight status page for this flight to view local times or setup timezone preferences in your user account.

Time Position Orientation Groundspeed Altitude Reporting Facility
EDT Latitude Longitude Course Direction KTS MPH feet Rate Location/Type
06:47PM 26.5069 -80.1578 342° North 287 330 38,000  Level Miami Center
06:48PM 26.5383 -80.2400 293° West 302 348 10,000 -12,600 Descending Miami Center
06:49PM 26.5850 -80.3042 309° West 293 337 12,800 3,000 Climbing Miami Center
06:50PM 26.6864 -80.3442 341° North 324 373 16,000 2,700 Climbing Miami Center
06:51PM 26.7794 -80.3772 342° North 376 433 18,200 2,220 Climbing Miami Center
06:52PM 26.8413 -80.4926 342° North  Level FlightAware Approximate
06:52PM 26.8892 -80.4203 341° North 395 455 20,500  Level Miami Center
06:53PM 26.9417 -80.5302 342° North  Level FlightAware Approximate
06:53PM 26.9986 -80.4631 341° North 408 470 23,000  Level Miami Center
06:54PM 27.1106 -80.5039 342° North 414 476 25,500 2,280 Climbing Miami Center
06:55PM 27.2242 -80.5472 341° North 419 482 27,600 1,920 Climbing Miami Center
06:56PM 27.3400 -80.5931 341° North 419 482 29,400 1,860 Climbing Miami Center
06:57PM 27.4558 -80.6364 342° North 425 489 31,400 2,220 Climbing Miami Center
06:58PM 27.5714 -80.6778 342° North 430 495 33,900 2,340 Climbing Miami Center
06:59PM 27.6831 -80.7214 341° North 430 495 36,100 1,680 Climbing Miami Center
07:00PM 27.7925 -80.7650 341° North 419 482 37,300 1,380 Climbing Miami Center
07:01PM 27.9106 -80.8042 344° North 428 493 38,900 840 Climbing Miami Center
07:02PM 28.0239 -80.8506 340° North 428 493 39,000  Climbing Miami Center
07:03PM 28.1397 -80.8922 342° North 428 493 39,000  Level Miami Center
07:05PM 28.3128 -80.9617 341° North 387 445 39,000  Level Jacksonville Center
07:06PM 28.4200 -81.0067 340° North 430 495 39,000  Level Jacksonville Center
07:07PM 28.5375 -81.0517 341° North 447 514 39,000  Level Jacksonville Center
07:08PM 28.6569 -81.0969 342° North 452 520 39,000  Level Jacksonville Center
07:09PM 28.7786 -81.1350 345° North 452 520 39,000  Level Jacksonville Center
07:10PM 28.9042 -81.1661 348° North 447 514 39,000  Level Jacksonville Center
07:11PM 29.0278 -81.1947 349° North 447 514 39,000  Level Jacksonville Center
07:12PM 29.1533 -81.2258 348° North 453 521 39,000 -600 Level Jacksonville Center
07:13PM 29.2811 -81.2547 349° North 453 521 37,900 -1,320 Descending Jacksonville Center
07:14PM 29.4067 -81.2858 348° North 453 521 36,400 -1,500 Descending Jacksonville Center
07:15PM 29.5303 -81.3150 348° North 453 521 35,000 -720 Descending Jacksonville Center
07:16PM 29.6597 -81.3272 355° North 453 521 35,000 -720 Level Jacksonville Center
07:17PM 29.7872 -81.3347 357° North 453 521 33,600 -1,020 Descending Jacksonville Center
07:18PM 29.9167 -81.3422 357° North 459 528 33,000 -300 Descending Jacksonville Center
07:19PM 30.0483 -81.3519 356° North 464 534 33,000  Level Jacksonville Center
07:20PM 30.1800 -81.3594 357° North 464 534 33,000  Level Jacksonville Center
07:21PM 30.3117 -81.3694 356° North 464 534 33,000  Level Jacksonville Center
07:22PM 30.4414 -81.3794 356° North 464 534 33,000  Level Jacksonville Center
07:23PM 30.5728 -81.3869 357° North 464 534 33,000  Level Jacksonville Center
07:24PM 30.7003 -81.3969 356° North 464 534 33,000  Level Jacksonville Center
07:25PM 30.8300 -81.4072 356° North 464 534 33,000  Level Jacksonville Center
07:26PM 30.9569 -81.3689 15° North 457 526 33,000  Level Jacksonville Center
07:27PM 31.0772 -81.3086 23° Northeast 457 526 33,000 -540 Level Jacksonville Center
07:28PM 31.1997 -81.2531 21° North 464 534 32,000 -1,320 Descending Jacksonville Center
07:29PM 31.3181 -81.1953 23° Northeast 464 534 30,500 -1,680 Descending Jacksonville Center
07:30PM 31.4547 -81.1269 23° Northeast 475 547 28,700 -1,620 Descending Jacksonville Center
07:31PM 31.5792 -81.0683 22° Northeast 475 547 27,300 -1,260 Descending Jacksonville Center
07:32PM 31.6869 -81.0150 23° Northeast 475 547 26,200 -1,440 Descending Jacksonville Center
07:33PM 31.8178 -80.9539 22° Northeast 464 534 24,500 -1,140 Descending Jacksonville Center
07:34PM 31.9214 -80.9050 22° Northeast 446 513 24,000 -960 Descending Jacksonville Center
07:35PM 32.0456 -80.8411 24° Northeast 446 513 22,700 -1,440 Descending Jacksonville Center
07:36PM 32.1594 -80.7894 21° North 437 503 21,200 -1,800 Descending Jacksonville Center
07:37PM 32.2672 -80.7331 24° Northeast 423 487 19,100 -1,980 Descending Jacksonville Center
07:38PM 32.3706 -80.6839 22° Northeast 405 466 17,300 -1,980 Descending Jacksonville Center
07:39PM 32.4742 -80.6319 23° Northeast 399 459 15,200 -2,160 Descending Jacksonville Center
07:40PM 32.5561 -80.5511 40° Northeast 385 443 13,000 -2,100 Descending Jacksonville Center
07:41PM 32.6189 -80.4458 55° Northeast 379 436 11,000 -1,200 Descending Jacksonville Center
07:42PM 32.6756 -80.3606 52° Northeast 373 429 10,600 -960 Descending Jacksonville Center
07:43PM 32.7411 -80.2994 38° Northeast 332 382 9,100 -1,500 Descending Jacksonville Center
07:44PM 32.8069 -80.2431 36° Northeast 305 351 7,600 -1,500 Descending Jacksonville Center
07:45PM 32.8703 -80.1892 36° Northeast 289 333 6,100 -1,320 Descending Jacksonville Center
07:46PM 32.9358 -80.1328 36° Northeast 284 327 5,000 -660 Descending Jacksonville Center
07:47PM 32.9892 -80.0892 34° Northeast 263 303 4,900 -120 Descending Jacksonville Center
07:49PM 32.8986 -80.0405 156° South  Level Estimated
07:56PM 32.8986 -80.0405 121° Southeast  Level Estimated
07:57PM 32.8986 -80.0405 121° Southeast  Level Estimated
07:58PM 32.8986 -80.0405 121° Southeast  Level Estimated
07:59PM 32.8986 -80.0405 121° Southeast  Level Estimated
08:00PM 32.8986 -80.0405 121° Southeast  Level Estimated
08:01PM 32.8986 -80.0405 121° Southeast  Level Estimated